Peck, Louisiana
Current Conditions -  °F | °C
As of 3:35 PM on Friday 19 Dec 2014 (Local Time) from KHEZ Reporting Station
Overcast Overcast  
Wind Chill: 43°   Ceiling: 600
Heat Index: 46°   Visibility: 5mi
Dew Point: 45°   Wind: 7mph
Humidity: 93%   Direction: 50°NE
Pressure: 30.13"   Gusts: NA
Location:  31.8591°N, 91.6926°W
Report Text: KHEZ 192135Z AUTO 05006KT 5SM BKN006 OVC013 08/07 A3013 RMK AO1 P0004
Loading
Personal Weather Stations






























Interactive Weather Map New forecast layout! Learn more

10-Day Weather Forecast

Advertisements
Track Severe Weather on mobile